地図

経路データ

SID SEASON NUMBER BASIN SUBBASIN NAME ISO_TIME NATURE LAT LON WMO_WIND WMO_PRES WMO_AGENCY TRACK_TYPE DIST2LAND LANDFALL IFLAG USA_AGENCY USA_ATCF_ID USA_LAT USA_LON USA_RECORD USA_STATUS USA_WIND USA_PRES USA_SSHS USA_R34_NE USA_R34_SE USA_R34_SW USA_R34_NW USA_R50_NE USA_R50_SE USA_R50_SW USA_R50_NW USA_R64_NE USA_R64_SE USA_R64_SW USA_R64_NW USA_POCI USA_ROCI USA_RMW USA_EYE TOKYO_LAT TOKYO_LON TOKYO_GRADE TOKYO_WIND TOKYO_PRES TOKYO_R50_DIR TOKYO_R50_LONG TOKYO_R50_SHORT TOKYO_R30_DIR TOKYO_R30_LONG TOKYO_R30_SHORT TOKYO_LAND CMA_LAT CMA_LON CMA_CAT CMA_WIND CMA_PRES HKO_LAT HKO_LON HKO_CAT HKO_WIND HKO_PRES NEWDELHI_LAT NEWDELHI_LON NEWDELHI_GRADE NEWDELHI_WIND NEWDELHI_PRES NEWDELHI_CI NEWDELHI_DP NEWDELHI_POCI REUNION_LAT REUNION_LON REUNION_TYPE REUNION_WIND REUNION_PRES REUNION_TNUM REUNION_CI REUNION_RMW REUNION_R34_NE REUNION_R34_SE REUNION_R34_SW REUNION_R34_NW REUNION_R50_NE REUNION_R50_SE REUNION_R50_SW REUNION_R50_NW REUNION_R64_NE REUNION_R64_SE REUNION_R64_SW REUNION_R64_NW BOM_LAT BOM_LON BOM_TYPE BOM_WIND BOM_PRES BOM_TNUM BOM_CI BOM_RMW BOM_R34_NE BOM_R34_SE BOM_R34_SW BOM_R34_NW BOM_R50_NE BOM_R50_SE BOM_R50_SW BOM_R50_NW BOM_R64_NE BOM_R64_SE BOM_R64_SW BOM_R64_NW BOM_ROCI BOM_POCI BOM_EYE BOM_POS_METHOD BOM_PRES_METHOD NADI_LAT NADI_LON NADI_CAT NADI_WIND NADI_PRES WELLINGTON_LAT WELLINGTON_LON WELLINGTON_WIND WELLINGTON_PRES DS824_LAT DS824_LON DS824_STAGE DS824_WIND DS824_PRES TD9636_LAT TD9636_LON TD9636_STAGE TD9636_WIND TD9636_PRES TD9635_LAT TD9635_LON TD9635_WIND TD9635_PRES TD9635_ROCI NEUMANN_LAT NEUMANN_LON NEUMANN_CLASS NEUMANN_WIND NEUMANN_PRES MLC_LAT MLC_LON MLC_CLASS MLC_WIND MLC_PRES USA_GUST BOM_GUST BOM_GUST_PER REUNION_GUST REUNION_GUST_PER USA_SEAHGT USA_SEARAD_NE USA_SEARAD_SE USA_SEARAD_SW USA_SEARAD_NW STORM_SPEED STORM_DIR
1895240N19118 1895 28 WP MM NOT_NAMED 1895-08-28 04:00:00 NR 19.4000 117.900 main 305 305 __________O___ -1 19.4000 117.900 4 4 293
1895240N19118 1895 28 WP MM NOT_NAMED 1895-08-28 06:00:00 NR 19.4490 117.781 main 315 319 __________P___ -1 19.4490 117.781 4 4 294
1895240N19118 1895 28 WP MM NOT_NAMED 1895-08-28 09:00:00 NR 19.5228 117.604 main 338 338 __________P___ -1 19.5228 117.604 4 4 294
1895240N19118 1895 28 WP MM NOT_NAMED 1895-08-28 12:00:00 NR 19.5976 117.428 main 362 362 __________P___ -1 19.5976 117.428 4 4 295
1895240N19118 1895 28 WP MM NOT_NAMED 1895-08-28 15:00:00 NR 19.6740 117.256 main 367 364 __________P___ -1 19.6740 117.256 4 4 295
1895240N19118 1895 28 WP MM NOT_NAMED 1895-08-28 16:00:00 NR 19.7000 117.200 main 364 351 __________O___ -1 19.7000 117.200 4 4 296
1895240N19118 1895 28 WP MM NOT_NAMED 1895-08-28 18:00:00 NR 19.7526 117.089 main 351 343 __________P___ -1 19.7526 117.089 4 3 297
1895240N19118 1895 28 WP MM NOT_NAMED 1895-08-28 21:00:00 NR 19.8316 116.929 main 343 329 __________P___ -1 19.8316 116.929 4 3 298
1895240N19118 1895 28 WP MM NOT_NAMED 1895-08-29 00:00:00 NR 19.9079 116.779 main 329 313 __________P___ -1 19.9079 116.779 4 3 299
1895240N19118 1895 28 WP MM NOT_NAMED 1895-08-29 03:00:00 NR 19.9783 116.642 main 313 313 __________P___ -1 19.9783 116.642 4 3 299
1895240N19118 1895 28 WP MM NOT_NAMED 1895-08-29 04:00:00 NR 20.0000 116.600 main 313 310 __________O___ -1 20.0000 116.600 4 3 299
1895240N19118 1895 28 WP MM NOT_NAMED 1895-08-29 06:00:00 NR 20.0390 116.524 main 310 297 __________P___ -1 20.0390 116.524 4 2 299
1895240N19118 1895 28 WP MM NOT_NAMED 1895-08-29 09:00:00 NR 20.0912 116.424 main 297 295 __________P___ -1 20.0912 116.424 4 2 299
1895240N19118 1895 28 WP MM NOT_NAMED 1895-08-29 12:00:00 NR 20.1387 116.330 main 295 282 __________P___ -1 20.1387 116.330 4 2 298
1895240N19118 1895 28 WP MM NOT_NAMED 1895-08-29 15:00:00 NR 20.1845 116.234 main 282 282 __________P___ -1 20.1845 116.234 4 2 297
1895240N19118 1895 28 WP MM NOT_NAMED 1895-08-29 16:00:00 NR 20.2000 116.200 main 282 281 __________O___ -1 20.2000 116.200 4 2 297
1895240N19118 1895 28 WP MM NOT_NAMED 1895-08-29 18:00:00 NR 20.2279 116.143 main 281 270 __________P___ -1 20.2279 116.143 4 2 297
1895240N19118 1895 28 WP MM NOT_NAMED 1895-08-29 21:00:00 NR 20.2697 116.052 main 270 266 __________P___ -1 20.2697 116.052 4 2 295
1895240N19118 1895 28 WP MM NOT_NAMED 1895-08-30 00:00:00 NR 20.3171 115.935 main 266 252 __________P___ -1 20.3171 115.935 4 3 292
1895240N19118 1895 28 WP MM NOT_NAMED 1895-08-30 03:00:00 NR 20.3765 115.770 main 252 248 __________P___ -1 20.3765 115.770 4 4 291
1895240N19118 1895 28 WP MM NOT_NAMED 1895-08-30 04:00:00 NR 20.4000 115.700 main 248 232 __________O___ -1 20.4000 115.700 4 5 290
1895240N19118 1895 28 WP MM NOT_NAMED 1895-08-30 06:00:00 NR 20.4553 115.537 main 232 211 __________P___ -1 20.4553 115.537 4 5 289
1895240N19118 1895 28 WP MM NOT_NAMED 1895-08-30 09:00:00 NR 20.5508 115.242 main 211 189 __________P___ -1 20.5508 115.242 4 6 289
1895240N19118 1895 28 WP MM NOT_NAMED 1895-08-30 12:00:00 NR 20.6558 114.901 main 189 168 __________P___ -1 20.6558 114.901 4 7 288
1895240N19118 1895 28 WP MM NOT_NAMED 1895-08-30 15:00:00 NR 20.7642 114.528 main 168 168 __________P___ -1 20.7642 114.528 4 7 287
1895240N19118 1895 28 WP MM NOT_NAMED 1895-08-30 16:00:00 NR 20.8000 114.400 main 168 156 __________O___ -1 20.8000 114.400 4 8 286
1895240N19118 1895 28 WP MM NOT_NAMED 1895-08-30 18:00:00 NR 20.8703 114.140 main 157 123 __________P___ -1 20.8703 114.140 4 8 286
1895240N19118 1895 28 WP MM NOT_NAMED 1895-08-30 21:00:00 NR 20.9724 113.744 main 123 94 __________P___ -1 20.9724 113.744 4 8 285
1895240N19118 1895 28 WP MM NOT_NAMED 1895-08-31 00:00:00 NR 21.0713 113.342 main 94 73 __________P___ -1 21.0713 113.342 4 8 285
1895240N19118 1895 28 WP MM NOT_NAMED 1895-08-31 03:00:00 NR 21.1681 112.936 main 73 70 __________P___ -1 21.1681 112.936 4 8 284
1895240N19118 1895 28 WP MM NOT_NAMED 1895-08-31 04:00:00 NR 21.2000 112.800 main 70 __________O___ -1 21.2000 112.800 7 8 284

デジタル台風データ・検索

IBTrACS Databaseについて

本データベースは、米国NOAAが公開する1842年以降の世界の熱帯低気圧のベストトラックデータアーカイブInternational Best Track Archive for Climate Stewardship (IBTrACS)を、ウェブで閲覧しやすい形式に変換したものです。

最終更新日:2021-11-26